sensor_id;sensor_type;location;lat;lon;timestamp;temperature;humidity
80540;DHT22;69869;48.036;15.780;2023-07-22T00:00:30;22.50;87.50
80540;DHT22;69869;48.036;15.780;2023-07-22T00:02:56;22.50;87.30
80540;DHT22;69869;48.036;15.780;2023-07-22T00:05:22;22.50;87.60
80540;DHT22;69869;48.036;15.780;2023-07-22T00:07:49;22.50;87.60
80540;DHT22;69869;48.036;15.780;2023-07-22T00:10:16;22.50;87.50
80540;DHT22;69869;48.036;15.780;2023-07-22T00:12:41;22.50;87.50
80540;DHT22;69869;48.036;15.780;2023-07-22T00:15:07;22.40;87.50
80540;DHT22;69869;48.036;15.780;2023-07-22T00:17:33;22.40;87.40
80540;DHT22;69869;48.036;15.780;2023-07-22T00:19:59;22.40;87.50
80540;DHT22;69869;48.036;15.780;2023-07-22T00:22:25;22.40;87.50
80540;DHT22;69869;48.036;15.780;2023-07-22T00:24:52;22.40;87.50
80540;DHT22;69869;48.036;15.780;2023-07-22T00:27:18;22.40;87.10
80540;DHT22;69869;48.036;15.780;2023-07-22T00:29:43;22.40;87.40
80540;DHT22;69869;48.036;15.780;2023-07-22T00:32:09;22.40;87.50
80540;DHT22;69869;48.036;15.780;2023-07-22T00:34:35;22.40;87.40
80540;DHT22;69869;48.036;15.780;2023-07-22T00:37:02;22.50;87.60
80540;DHT22;69869;48.036;15.780;2023-07-22T00:39:28;22.40;87.40
80540;DHT22;69869;48.036;15.780;2023-07-22T00:41:53;22.40;87.10
80540;DHT22;69869;48.036;15.780;2023-07-22T00:44:19;22.40;87.40
80540;DHT22;69869;48.036;15.780;2023-07-22T00:46:45;22.40;87.50
80540;DHT22;69869;48.036;15.780;2023-07-22T00:49:12;22.40;87.50
80540;DHT22;69869;48.036;15.780;2023-07-22T00:51:39;22.40;87.40
80540;DHT22;69869;48.036;15.780;2023-07-22T00:54:05;22.40;87.40
80540;DHT22;69869;48.036;15.780;2023-07-22T00:56:36;22.40;87.50
80540;DHT22;69869;48.036;15.780;2023-07-22T00:59:02;22.40;87.50
80540;DHT22;69869;48.036;15.780;2023-07-22T01:01:28;22.40;87.50
80540;DHT22;69869;48.036;15.780;2023-07-22T01:03:54;22.40;87.50
80540;DHT22;69869;48.036;15.780;2023-07-22T01:06:20;22.40;87.40
80540;DHT22;69869;48.036;15.780;2023-07-22T01:08:45;22.40;87.50
80540;DHT22;69869;48.036;15.780;2023-07-22T01:11:12;22.40;87.40
80540;DHT22;69869;48.036;15.780;2023-07-22T01:13:38;22.40;87.30
80540;DHT22;69869;48.036;15.780;2023-07-22T01:16:05;22.40;87.40
80540;DHT22;69869;48.036;15.780;2023-07-22T01:18:33;22.40;87.40
80540;DHT22;69869;48.036;15.780;2023-07-22T01:20:59;22.40;87.40
80540;DHT22;69869;48.036;15.780;2023-07-22T01:23:24;22.40;87.50
80540;DHT22;69869;48.036;15.780;2023-07-22T01:25:51;22.40;87.50
80540;DHT22;69869;48.036;15.780;2023-07-22T01:28:17;22.50;87.50
80540;DHT22;69869;48.036;15.780;2023-07-22T01:30:42;22.40;87.40
80540;DHT22;69869;48.036;15.780;2023-07-22T01:33:08;22.40;87.50
80540;DHT22;69869;48.036;15.780;2023-07-22T01:35:34;22.40;87.50
80540;DHT22;69869;48.036;15.780;2023-07-22T01:37:59;22.40;87.50
80540;DHT22;69869;48.036;15.780;2023-07-22T01:40:25;22.40;87.50
80540;DHT22;69869;48.036;15.780;2023-07-22T01:42:51;22.40;87.30
80540;DHT22;69869;48.036;15.780;2023-07-22T01:45:17;22.40;87.40
80540;DHT22;69869;48.036;15.780;2023-07-22T01:47:42;22.40;87.20
80540;DHT22;69869;48.036;15.780;2023-07-22T01:50:08;22.40;87.40
80540;DHT22;69869;48.036;15.780;2023-07-22T01:52:35;22.40;87.40
80540;DHT22;69869;48.036;15.780;2023-07-22T01:55:01;22.40;87.40
80540;DHT22;69869;48.036;15.780;2023-07-22T01:57:27;22.40;87.40
80540;DHT22;69869;48.036;15.780;2023-07-22T01:59:53;22.40;87.20
80540;DHT22;69869;48.036;15.780;2023-07-22T02:02:19;22.40;87.40
80540;DHT22;69869;48.036;15.780;2023-07-22T02:04:45;22.40;87.40
80540;DHT22;69869;48.036;15.780;2023-07-22T02:07:11;22.40;87.50
80540;DHT22;69869;48.036;15.780;2023-07-22T02:09:36;22.40;87.40
80540;DHT22;69869;48.036;15.780;2023-07-22T02:12:02;22.40;87.40
80540;DHT22;69869;48.036;15.780;2023-07-22T02:14:28;22.40;87.40
80540;DHT22;69869;48.036;15.780;2023-07-22T02:16:53;22.40;87.50
80540;DHT22;69869;48.036;15.780;2023-07-22T02:19:19;22.40;88.10
80540;DHT22;69869;48.036;15.780;2023-07-22T02:21:45;22.40;87.40
80540;DHT22;69869;48.036;15.780;2023-07-22T02:24:10;22.40;87.50
80540;DHT22;69869;48.036;15.780;2023-07-22T02:26:36;22.40;87.50
80540;DHT22;69869;48.036;15.780;2023-07-22T02:29:02;22.40;87.50
80540;DHT22;69869;48.036;15.780;2023-07-22T02:31:28;22.40;87.40
80540;DHT22;69869;48.036;15.780;2023-07-22T02:33:53;22.40;88.20
80540;DHT22;69869;48.036;15.780;2023-07-22T02:36:19;22.40;87.30
80540;DHT22;69869;48.036;15.780;2023-07-22T02:38:45;22.40;87.40
80540;DHT22;69869;48.036;15.780;2023-07-22T02:41:10;22.40;87.30
80540;DHT22;69869;48.036;15.780;2023-07-22T02:43:36;22.40;87.50
80540;DHT22;69869;48.036;15.780;2023-07-22T02:46:02;22.40;87.50
80540;DHT22;69869;48.036;15.780;2023-07-22T02:48:30;22.40;87.30
80540;DHT22;69869;48.036;15.780;2023-07-22T02:51:08;22.40;87.50
80540;DHT22;69869;48.036;15.780;2023-07-22T02:53:35;22.40;87.40
80540;DHT22;69869;48.036;15.780;2023-07-22T02:56:04;22.40;87.40
80540;DHT22;69869;48.036;15.780;2023-07-22T02:58:30;22.40;87.40
80540;DHT22;69869;48.036;15.780;2023-07-22T03:00:56;22.40;87.40
80540;DHT22;69869;48.036;15.780;2023-07-22T03:03:24;22.40;87.50
80540;DHT22;69869;48.036;15.780;2023-07-22T03:05:50;22.40;87.50
80540;DHT22;69869;48.036;15.780;2023-07-22T03:08:16;22.40;87.50
80540;DHT22;69869;48.036;15.780;2023-07-22T03:10:43;22.40;87.40
80540;DHT22;69869;48.036;15.780;2023-07-22T03:13:16;22.40;87.50
80540;DHT22;69869;48.036;15.780;2023-07-22T03:15:42;22.40;87.40
80540;DHT22;69869;48.036;15.780;2023-07-22T03:18:08;22.40;87.40
80540;DHT22;69869;48.036;15.780;2023-07-22T03:20:36;22.40;87.40
80540;DHT22;69869;48.036;15.780;2023-07-22T03:23:02;22.40;87.40
80540;DHT22;69869;48.036;15.780;2023-07-22T03:25:28;22.40;87.30
80540;DHT22;69869;48.036;15.780;2023-07-22T03:27:54;22.40;87.10
80540;DHT22;69869;48.036;15.780;2023-07-22T03:30:22;22.40;87.30
80540;DHT22;69869;48.036;15.780;2023-07-22T03:32:49;22.40;87.30
80540;DHT22;69869;48.036;15.780;2023-07-22T03:35:16;22.40;87.40
80540;DHT22;69869;48.036;15.780;2023-07-22T03:37:42;22.40;87.20
80540;DHT22;69869;48.036;15.780;2023-07-22T03:40:09;22.40;87.30
80540;DHT22;69869;48.036;15.780;2023-07-22T03:42:54;22.40;87.30
80540;DHT22;69869;48.036;15.780;2023-07-22T03:45:21;22.40;87.30
80540;DHT22;69869;48.036;15.780;2023-07-22T03:47:55;22.40;87.30
80540;DHT22;69869;48.036;15.780;2023-07-22T03:50:21;22.40;87.30
80540;DHT22;69869;48.036;15.780;2023-07-22T03:52:47;22.40;86.90
80540;DHT22;69869;48.036;15.780;2023-07-22T03:55:13;22.40;86.90
80540;DHT22;69869;48.036;15.780;2023-07-22T03:57:38;22.40;87.30
80540;DHT22;69869;48.036;15.780;2023-07-22T04:00:05;22.40;87.30
80540;DHT22;69869;48.036;15.780;2023-07-22T04:02:31;22.40;87.20
80540;DHT22;69869;48.036;15.780;2023-07-22T04:04:57;22.40;87.30
80540;DHT22;69869;48.036;15.780;2023-07-22T04:07:22;22.40;87.30
80540;DHT22;69869;48.036;15.780;2023-07-22T04:09:48;22.40;87.20
80540;DHT22;69869;48.036;15.780;2023-07-22T04:12:14;22.40;87.30
80540;DHT22;69869;48.036;15.780;2023-07-22T04:14:40;22.30;87.20
80540;DHT22;69869;48.036;15.780;2023-07-22T04:17:06;22.40;87.20
80540;DHT22;69869;48.036;15.780;2023-07-22T04:19:32;22.40;87.30
80540;DHT22;69869;48.036;15.780;2023-07-22T04:21:57;22.40;87.20
80540;DHT22;69869;48.036;15.780;2023-07-22T04:24:23;22.30;87.10
80540;DHT22;69869;48.036;15.780;2023-07-22T04:26:50;22.40;87.20
80540;DHT22;69869;48.036;15.780;2023-07-22T04:29:16;22.40;87.90
80540;DHT22;69869;48.036;15.780;2023-07-22T04:31:42;22.40;87.20
80540;DHT22;69869;48.036;15.780;2023-07-22T04:34:08;22.40;87.30
80540;DHT22;69869;48.036;15.780;2023-07-22T04:36:34;22.40;87.20
80540;DHT22;69869;48.036;15.780;2023-07-22T04:39:02;22.40;87.10
80540;DHT22;69869;48.036;15.780;2023-07-22T04:41:30;22.40;87.20
80540;DHT22;69869;48.036;15.780;2023-07-22T04:43:58;22.40;87.00
80540;DHT22;69869;48.036;15.780;2023-07-22T04:46:27;22.40;86.80
80540;DHT22;69869;48.036;15.780;2023-07-22T04:48:55;22.40;87.00
80540;DHT22;69869;48.036;15.780;2023-07-22T04:51:20;22.40;87.30
80540;DHT22;69869;48.036;15.780;2023-07-22T04:53:46;22.40;87.10
80540;DHT22;69869;48.036;15.780;2023-07-22T04:56:12;22.40;87.10
80540;DHT22;69869;48.036;15.780;2023-07-22T04:58:37;22.40;87.20
80540;DHT22;69869;48.036;15.780;2023-07-22T05:01:04;22.30;87.00
80540;DHT22;69869;48.036;15.780;2023-07-22T05:03:29;22.40;87.30
80540;DHT22;69869;48.036;15.780;2023-07-22T05:05:55;22.30;87.20
80540;DHT22;69869;48.036;15.780;2023-07-22T05:08:23;22.40;87.30
80540;DHT22;69869;48.036;15.780;2023-07-22T05:10:48;22.30;86.80
80540;DHT22;69869;48.036;15.780;2023-07-22T05:13:14;22.40;86.90
80540;DHT22;69869;48.036;15.780;2023-07-22T05:15:40;22.40;87.30
80540;DHT22;69869;48.036;15.780;2023-07-22T05:18:05;22.30;87.10
80540;DHT22;69869;48.036;15.780;2023-07-22T05:20:31;22.40;87.30
80540;DHT22;69869;48.036;15.780;2023-07-22T05:22:58;22.30;87.20
80540;DHT22;69869;48.036;15.780;2023-07-22T05:25:23;22.40;87.40
80540;DHT22;69869;48.036;15.780;2023-07-22T05:27:49;22.30;87.20
80540;DHT22;69869;48.036;15.780;2023-07-22T05:30:15;22.40;86.90
80540;DHT22;69869;48.036;15.780;2023-07-22T05:32:40;22.30;87.20
80540;DHT22;69869;48.036;15.780;2023-07-22T05:35:06;22.30;87.30
80540;DHT22;69869;48.036;15.780;2023-07-22T05:37:32;22.30;87.20
80540;DHT22;69869;48.036;15.780;2023-07-22T05:39:58;22.30;87.30
80540;DHT22;69869;48.036;15.780;2023-07-22T05:42:24;22.30;87.30
80540;DHT22;69869;48.036;15.780;2023-07-22T05:44:50;22.30;87.20
80540;DHT22;69869;48.036;15.780;2023-07-22T05:47:15;22.30;87.30
80540;DHT22;69869;48.036;15.780;2023-07-22T05:49:41;22.30;87.30
80540;DHT22;69869;48.036;15.780;2023-07-22T05:52:07;22.30;87.20
80540;DHT22;69869;48.036;15.780;2023-07-22T05:54:32;22.30;87.30
80540;DHT22;69869;48.036;15.780;2023-07-22T05:56:58;22.30;87.10
80540;DHT22;69869;48.036;15.780;2023-07-22T05:59:23;22.30;87.20
80540;DHT22;69869;48.036;15.780;2023-07-22T06:01:52;22.30;86.90
80540;DHT22;69869;48.036;15.780;2023-07-22T06:04:17;22.30;87.10
80540;DHT22;69869;48.036;15.780;2023-07-22T06:06:43;22.30;87.00
80540;DHT22;69869;48.036;15.780;2023-07-22T06:09:09;22.30;87.10
80540;DHT22;69869;48.036;15.780;2023-07-22T06:11:35;22.30;87.30
80540;DHT22;69869;48.036;15.780;2023-07-22T06:14:00;22.30;87.30
80540;DHT22;69869;48.036;15.780;2023-07-22T06:16:26;22.30;87.30
80540;DHT22;69869;48.036;15.780;2023-07-22T06:18:51;22.30;87.30
80540;DHT22;69869;48.036;15.780;2023-07-22T06:21:17;22.30;87.30
80540;DHT22;69869;48.036;15.780;2023-07-22T06:23:42;22.30;87.20
80540;DHT22;69869;48.036;15.780;2023-07-22T06:26:08;22.30;87.20
80540;DHT22;69869;48.036;15.780;2023-07-22T06:28:34;22.30;87.20
80540;DHT22;69869;48.036;15.780;2023-07-22T06:31:00;22.30;87.10
80540;DHT22;69869;48.036;15.780;2023-07-22T06:33:25;22.30;87.20
80540;DHT22;69869;48.036;15.780;2023-07-22T06:35:51;22.30;87.20
80540;DHT22;69869;48.036;15.780;2023-07-22T06:38:17;22.30;87.20
80540;DHT22;69869;48.036;15.780;2023-07-22T06:40:43;22.30;87.20
80540;DHT22;69869;48.036;15.780;2023-07-22T06:43:08;22.30;87.20
80540;DHT22;69869;48.036;15.780;2023-07-22T06:45:34;22.30;86.80
80540;DHT22;69869;48.036;15.780;2023-07-22T06:48:00;22.30;87.10
80540;DHT22;69869;48.036;15.780;2023-07-22T06:50:25;22.30;87.30
80540;DHT22;69869;48.036;15.780;2023-07-22T06:52:51;22.30;87.00
80540;DHT22;69869;48.036;15.780;2023-07-22T06:55:16;22.30;87.10
80540;DHT22;69869;48.036;15.780;2023-07-22T06:57:42;22.30;87.20
80540;DHT22;69869;48.036;15.780;2023-07-22T07:00:09;22.30;87.20
80540;DHT22;69869;48.036;15.780;2023-07-22T07:02:37;22.30;87.10
80540;DHT22;69869;48.036;15.780;2023-07-22T07:05:03;22.30;87.20
80540;DHT22;69869;48.036;15.780;2023-07-22T07:07:29;22.30;87.80
80540;DHT22;69869;48.036;15.780;2023-07-22T07:09:55;22.30;87.20
80540;DHT22;69869;48.036;15.780;2023-07-22T07:12:21;22.30;86.90
80540;DHT22;69869;48.036;15.780;2023-07-22T07:14:50;22.30;87.00
80540;DHT22;69869;48.036;15.780;2023-07-22T07:17:16;22.30;87.10
80540;DHT22;69869;48.036;15.780;2023-07-22T07:19:42;22.30;86.70
80540;DHT22;69869;48.036;15.780;2023-07-22T07:22:10;22.30;87.00
80540;DHT22;69869;48.036;15.780;2023-07-22T07:24:39;22.30;87.00
80540;DHT22;69869;48.036;15.780;2023-07-22T07:27:05;22.30;87.20
80540;DHT22;69869;48.036;15.780;2023-07-22T07:29:30;22.30;87.10
80540;DHT22;69869;48.036;15.780;2023-07-22T07:31:56;22.30;87.20
80540;DHT22;69869;48.036;15.780;2023-07-22T07:34:22;22.30;87.10
80540;DHT22;69869;48.036;15.780;2023-07-22T07:36:48;22.30;87.20
80540;DHT22;69869;48.036;15.780;2023-07-22T07:39:14;22.30;86.90
80540;DHT22;69869;48.036;15.780;2023-07-22T07:41:39;22.30;87.10
80540;DHT22;69869;48.036;15.780;2023-07-22T07:44:05;22.30;87.00
80540;DHT22;69869;48.036;15.780;2023-07-22T07:46:31;22.30;87.10
80540;DHT22;69869;48.036;15.780;2023-07-22T07:48:59;22.30;87.10
80540;DHT22;69869;48.036;15.780;2023-07-22T07:51:27;22.30;86.70
80540;DHT22;69869;48.036;15.780;2023-07-22T07:53:53;22.30;87.10
80540;DHT22;69869;48.036;15.780;2023-07-22T07:56:20;22.30;87.10
80540;DHT22;69869;48.036;15.780;2023-07-22T07:58:47;22.20;86.90
80540;DHT22;69869;48.036;15.780;2023-07-22T08:01:13;22.30;86.80
80540;DHT22;69869;48.036;15.780;2023-07-22T08:03:40;22.20;87.00
80540;DHT22;69869;48.036;15.780;2023-07-22T08:06:07;22.30;86.90
80540;DHT22;69869;48.036;15.780;2023-07-22T08:08:33;22.30;87.20
80540;DHT22;69869;48.036;15.780;2023-07-22T08:13:29;22.20;86.40
80540;DHT22;69869;48.036;15.780;2023-07-22T08:15:57;22.30;87.00
80540;DHT22;69869;48.036;15.780;2023-07-22T08:18:23;22.30;87.10
80540;DHT22;69869;48.036;15.780;2023-07-22T08:20:51;22.30;86.90
80540;DHT22;69869;48.036;15.780;2023-07-22T08:23:16;22.30;87.00
80540;DHT22;69869;48.036;15.780;2023-07-22T08:25:42;22.20;86.80
80540;DHT22;69869;48.036;15.780;2023-07-22T08:28:07;22.30;86.80
80540;DHT22;69869;48.036;15.780;2023-07-22T08:30:33;22.30;86.30
80540;DHT22;69869;48.036;15.780;2023-07-22T08:32:59;22.20;86.80
80540;DHT22;69869;48.036;15.780;2023-07-22T08:35:24;22.30;86.80
80540;DHT22;69869;48.036;15.780;2023-07-22T08:37:50;22.20;87.00
80540;DHT22;69869;48.036;15.780;2023-07-22T08:40:15;22.20;87.30
80540;DHT22;69869;48.036;15.780;2023-07-22T08:42:41;22.20;86.80
80540;DHT22;69869;48.036;15.780;2023-07-22T08:45:10;22.20;86.90
80540;DHT22;69869;48.036;15.780;2023-07-22T08:47:39;22.20;86.90
80540;DHT22;69869;48.036;15.780;2023-07-22T08:50:09;22.20;86.00
80540;DHT22;69869;48.036;15.780;2023-07-22T08:52:35;22.20;86.90
80540;DHT22;69869;48.036;15.780;2023-07-22T08:55:01;22.20;86.60
80540;DHT22;69869;48.036;15.780;2023-07-22T08:57:29;22.20;86.80
80540;DHT22;69869;48.036;15.780;2023-07-22T08:59:57;22.20;86.90
80540;DHT22;69869;48.036;15.780;2023-07-22T09:02:24;22.20;86.90
80540;DHT22;69869;48.036;15.780;2023-07-22T09:04:50;22.20;86.80
80540;DHT22;69869;48.036;15.780;2023-07-22T09:07:16;22.20;87.00
80540;DHT22;69869;48.036;15.780;2023-07-22T09:09:44;22.20;87.00
80540;DHT22;69869;48.036;15.780;2023-07-22T09:12:11;22.20;87.00
80540;DHT22;69869;48.036;15.780;2023-07-22T09:14:38;22.20;87.10
80540;DHT22;69869;48.036;15.780;2023-07-22T09:17:05;22.20;85.90
80540;DHT22;69869;48.036;15.780;2023-07-22T09:19:31;22.20;86.90
80540;DHT22;69869;48.036;15.780;2023-07-22T09:21:57;22.20;86.90
80540;DHT22;69869;48.036;15.780;2023-07-22T09:24:25;22.20;87.00
80540;DHT22;69869;48.036;15.780;2023-07-22T09:26:51;22.20;86.70
80540;DHT22;69869;48.036;15.780;2023-07-22T09:29:17;22.20;87.00
80540;DHT22;69869;48.036;15.780;2023-07-22T09:31:54;22.20;86.90
80540;DHT22;69869;48.036;15.780;2023-07-22T09:34:19;22.20;87.00
80540;DHT22;69869;48.036;15.780;2023-07-22T09:36:56;22.20;86.10
80540;DHT22;69869;48.036;15.780;2023-07-22T09:39:23;22.20;86.90
80540;DHT22;69869;48.036;15.780;2023-07-22T09:41:49;22.20;87.00
80540;DHT22;69869;48.036;15.780;2023-07-22T09:44:18;22.20;85.20
80540;DHT22;69869;48.036;15.780;2023-07-22T09:46:47;22.20;86.30
80540;DHT22;69869;48.036;15.780;2023-07-22T09:49:16;22.20;85.90
80540;DHT22;69869;48.036;15.780;2023-07-22T09:51:42;22.10;85.20
80540;DHT22;69869;48.036;15.780;2023-07-22T09:54:08;22.20;86.30
80540;DHT22;69869;48.036;15.780;2023-07-22T09:56:54;22.20;86.50
80540;DHT22;69869;48.036;15.780;2023-07-22T09:59:21;22.20;86.80
80540;DHT22;69869;48.036;15.780;2023-07-22T10:01:48;22.20;86.70
80540;DHT22;69869;48.036;15.780;2023-07-22T10:04:16;22.20;84.90
80540;DHT22;69869;48.036;15.780;2023-07-22T10:06:43;22.20;86.40
80540;DHT22;69869;48.036;15.780;2023-07-22T10:09:11;22.20;86.30
80540;DHT22;69869;48.036;15.780;2023-07-22T10:11:37;22.20;86.10
80540;DHT22;69869;48.036;15.780;2023-07-22T10:14:05;22.10;85.20
80540;DHT22;69869;48.036;15.780;2023-07-22T10:16:31;22.20;86.60
80540;DHT22;69869;48.036;15.780;2023-07-22T10:18:58;22.20;85.00
80540;DHT22;69869;48.036;15.780;2023-07-22T10:21:24;22.10;87.20
80540;DHT22;69869;48.036;15.780;2023-07-22T10:23:51;22.10;83.70
80540;DHT22;69869;48.036;15.780;2023-07-22T10:26:20;22.20;85.70
80540;DHT22;69869;48.036;15.780;2023-07-22T10:28:46;22.20;84.00
80540;DHT22;69869;48.036;15.780;2023-07-22T10:31:16;22.10;84.30
80540;DHT22;69869;48.036;15.780;2023-07-22T10:33:47;22.20;84.00
80540;DHT22;69869;48.036;15.780;2023-07-22T10:36:17;22.20;83.50
80540;DHT22;69869;48.036;15.780;2023-07-22T10:38:43;22.20;83.50
80540;DHT22;69869;48.036;15.780;2023-07-22T10:41:14;22.20;83.50
80540;DHT22;69869;48.036;15.780;2023-07-22T10:43:51;22.20;84.90
80540;DHT22;69869;48.036;15.780;2023-07-22T10:46:19;22.20;83.10
80540;DHT22;69869;48.036;15.780;2023-07-22T10:49:10;22.20;83.50
80540;DHT22;69869;48.036;15.780;2023-07-22T10:51:37;22.20;83.00
80540;DHT22;69869;48.036;15.780;2023-07-22T10:54:03;22.20;83.50
80540;DHT22;69869;48.036;15.780;2023-07-22T10:56:35;22.20;84.00
80540;DHT22;69869;48.036;15.780;2023-07-22T10:59:01;22.20;83.60
80540;DHT22;69869;48.036;15.780;2023-07-22T11:04:09;22.20;82.70
80540;DHT22;69869;48.036;15.780;2023-07-22T11:11:59;22.20;82.40
80540;DHT22;69869;48.036;15.780;2023-07-22T11:14:28;22.20;82.80
80540;DHT22;69869;48.036;15.780;2023-07-22T11:16:56;22.20;82.80
80540;DHT22;69869;48.036;15.780;2023-07-22T11:19:23;22.20;82.70
80540;DHT22;69869;48.036;15.780;2023-07-22T11:21:50;22.20;81.60
80540;DHT22;69869;48.036;15.780;2023-07-22T11:24:17;22.20;81.60
80540;DHT22;69869;48.036;15.780;2023-07-22T11:26:45;22.30;81.60
80540;DHT22;69869;48.036;15.780;2023-07-22T11:29:11;22.30;81.50
80540;DHT22;69869;48.036;15.780;2023-07-22T11:31:46;22.30;81.50
80540;DHT22;69869;48.036;15.780;2023-07-22T11:34:17;22.20;82.40
80540;DHT22;69869;48.036;15.780;2023-07-22T11:36:43;22.30;81.70
80540;DHT22;69869;48.036;15.780;2023-07-22T11:39:11;22.30;82.70
80540;DHT22;69869;48.036;15.780;2023-07-22T11:41:38;22.30;82.00
80540;DHT22;69869;48.036;15.780;2023-07-22T11:44:05;22.30;82.30
80540;DHT22;69869;48.036;15.780;2023-07-22T11:46:48;22.20;81.50
80540;DHT22;69869;48.036;15.780;2023-07-22T11:51:58;22.30;82.70
80540;DHT22;69869;48.036;15.780;2023-07-22T11:54:25;22.20;81.20
80540;DHT22;69869;48.036;15.780;2023-07-22T11:56:51;22.20;82.00
80540;DHT22;69869;48.036;15.780;2023-07-22T11:59:16;22.20;83.00
80540;DHT22;69869;48.036;15.780;2023-07-22T12:01:45;22.20;81.10
80540;DHT22;69869;48.036;15.780;2023-07-22T12:04:13;22.20;82.50
80540;DHT22;69869;48.036;15.780;2023-07-22T12:06:40;22.20;81.80
80540;DHT22;69869;48.036;15.780;2023-07-22T12:09:07;22.20;82.10
80540;DHT22;69869;48.036;15.780;2023-07-22T12:11:34;22.20;82.50
80540;DHT22;69869;48.036;15.780;2023-07-22T12:14:13;22.20;81.80
80540;DHT22;69869;48.036;15.780;2023-07-22T12:16:42;22.20;82.70
80540;DHT22;69869;48.036;15.780;2023-07-22T12:19:09;22.20;83.20
80540;DHT22;69869;48.036;15.780;2023-07-22T12:21:35;22.20;81.80
80540;DHT22;69869;48.036;15.780;2023-07-22T12:24:01;22.20;81.70
80540;DHT22;69869;48.036;15.780;2023-07-22T12:26:27;22.30;81.90
80540;DHT22;69869;48.036;15.780;2023-07-22T12:28:53;22.20;82.20
80540;DHT22;69869;48.036;15.780;2023-07-22T12:31:19;22.20;81.10
80540;DHT22;69869;48.036;15.780;2023-07-22T12:33:45;22.20;82.20
80540;DHT22;69869;48.036;15.780;2023-07-22T12:36:11;22.30;81.70
80540;DHT22;69869;48.036;15.780;2023-07-22T12:38:36;22.20;82.90
80540;DHT22;69869;48.036;15.780;2023-07-22T12:41:02;22.20;83.10
80540;DHT22;69869;48.036;15.780;2023-07-22T12:43:28;22.20;83.00
80540;DHT22;69869;48.036;15.780;2023-07-22T12:45:54;22.20;82.80
80540;DHT22;69869;48.036;15.780;2023-07-22T12:48:19;22.20;83.40
80540;DHT22;69869;48.036;15.780;2023-07-22T12:50:45;22.20;81.70
80540;DHT22;69869;48.036;15.780;2023-07-22T12:53:13;22.20;82.40
80540;DHT22;69869;48.036;15.780;2023-07-22T12:55:38;22.20;81.60
80540;DHT22;69869;48.036;15.780;2023-07-22T12:58:05;22.20;82.40
80540;DHT22;69869;48.036;15.780;2023-07-22T13:00:30;22.20;82.40
80540;DHT22;69869;48.036;15.780;2023-07-22T13:02:56;22.20;82.10
80540;DHT22;69869;48.036;15.780;2023-07-22T13:05:22;22.30;79.50
80540;DHT22;69869;48.036;15.780;2023-07-22T13:07:48;22.30;80.00
80540;DHT22;69869;48.036;15.780;2023-07-22T13:10:15;22.30;80.70
80540;DHT22;69869;48.036;15.780;2023-07-22T13:12:43;22.30;80.90
80540;DHT22;69869;48.036;15.780;2023-07-22T13:15:09;22.30;81.10
80540;DHT22;69869;48.036;15.780;2023-07-22T13:17:35;22.30;81.00
80540;DHT22;69869;48.036;15.780;2023-07-22T13:20:02;22.20;80.80
80540;DHT22;69869;48.036;15.780;2023-07-22T13:22:32;22.20;81.00
80540;DHT22;69869;48.036;15.780;2023-07-22T13:24:58;22.30;81.70
80540;DHT22;69869;48.036;15.780;2023-07-22T13:27:23;22.30;81.80
80540;DHT22;69869;48.036;15.780;2023-07-22T13:29:49;22.20;81.70
80540;DHT22;69869;48.036;15.780;2023-07-22T13:32:14;22.20;80.80
80540;DHT22;69869;48.036;15.780;2023-07-22T13:34:40;22.20;80.60
80540;DHT22;69869;48.036;15.780;2023-07-22T13:37:06;22.20;81.70
80540;DHT22;69869;48.036;15.780;2023-07-22T13:39:31;22.20;81.10
80540;DHT22;69869;48.036;15.780;2023-07-22T13:41:57;22.20;81.10
80540;DHT22;69869;48.036;15.780;2023-07-22T13:44:23;22.20;80.90
80540;DHT22;69869;48.036;15.780;2023-07-22T13:46:48;22.20;81.60
80540;DHT22;69869;48.036;15.780;2023-07-22T13:49:14;22.20;82.30
80540;DHT22;69869;48.036;15.780;2023-07-22T13:51:41;22.20;81.60
80540;DHT22;69869;48.036;15.780;2023-07-22T13:54:06;22.20;81.90
80540;DHT22;69869;48.036;15.780;2023-07-22T13:56:32;22.20;81.00
80540;DHT22;69869;48.036;15.780;2023-07-22T13:58:58;22.20;80.80
80540;DHT22;69869;48.036;15.780;2023-07-22T14:01:26;22.20;80.80
80540;DHT22;69869;48.036;15.780;2023-07-22T14:03:52;22.20;82.00
80540;DHT22;69869;48.036;15.780;2023-07-22T14:06:17;22.20;80.60
80540;DHT22;69869;48.036;15.780;2023-07-22T14:08:43;22.20;81.30
80540;DHT22;69869;48.036;15.780;2023-07-22T14:11:09;22.20;81.90
80540;DHT22;69869;48.036;15.780;2023-07-22T14:13:34;22.20;82.30
80540;DHT22;69869;48.036;15.780;2023-07-22T14:16:02;22.20;81.80
80540;DHT22;69869;48.036;15.780;2023-07-22T14:18:27;22.20;81.90
80540;DHT22;69869;48.036;15.780;2023-07-22T14:20:53;22.20;81.80
80540;DHT22;69869;48.036;15.780;2023-07-22T14:23:19;22.20;81.50
80540;DHT22;69869;48.036;15.780;2023-07-22T14:25:44;22.20;81.60
80540;DHT22;69869;48.036;15.780;2023-07-22T14:28:10;22.30;81.20
80540;DHT22;69869;48.036;15.780;2023-07-22T14:30:35;22.30;81.90
80540;DHT22;69869;48.036;15.780;2023-07-22T14:33:01;22.30;81.50
80540;DHT22;69869;48.036;15.780;2023-07-22T14:35:26;22.30;82.00
80540;DHT22;69869;48.036;15.780;2023-07-22T14:37:52;22.30;82.00
80540;DHT22;69869;48.036;15.780;2023-07-22T14:40:18;22.30;82.30
80540;DHT22;69869;48.036;15.780;2023-07-22T14:42:44;22.30;81.50
80540;DHT22;69869;48.036;15.780;2023-07-22T14:45:09;22.30;82.80
80540;DHT22;69869;48.036;15.780;2023-07-22T14:47:35;22.30;81.80
80540;DHT22;69869;48.036;15.780;2023-07-22T14:50:01;22.30;82.10
80540;DHT22;69869;48.036;15.780;2023-07-22T14:52:27;22.30;82.20
80540;DHT22;69869;48.036;15.780;2023-07-22T14:54:52;22.30;81.90
80540;DHT22;69869;48.036;15.780;2023-07-22T14:57:18;22.30;82.60
80540;DHT22;69869;48.036;15.780;2023-07-22T14:59:43;22.30;81.70
80540;DHT22;69869;48.036;15.780;2023-07-22T15:02:09;22.30;82.50
80540;DHT22;69869;48.036;15.780;2023-07-22T15:04:36;22.30;82.40
80540;DHT22;69869;48.036;15.780;2023-07-22T15:07:02;22.30;81.20
80540;DHT22;69869;48.036;15.780;2023-07-22T15:09:27;22.30;82.90
80540;DHT22;69869;48.036;15.780;2023-07-22T15:11:53;22.30;81.90
80540;DHT22;69869;48.036;15.780;2023-07-22T15:14:19;22.30;82.00
80540;DHT22;69869;48.036;15.780;2023-07-22T15:16:44;22.30;82.60
80540;DHT22;69869;48.036;15.780;2023-07-22T15:19:11;22.30;82.70
80540;DHT22;69869;48.036;15.780;2023-07-22T15:21:37;22.30;82.10
80540;DHT22;69869;48.036;15.780;2023-07-22T15:24:02;22.30;81.90